Kezdőlap
METAR-TAF:

METAR-TAF

Repülőterek :

Csita, Oroszország

földrajzi szélesség: 52-05N, földrajzi hosszúság: 113-29E, magasság: 685 m

Jelenlegi meteorológiai megfigyelések

A jelentés 31 perccel ezelõtt készült, 06:00 UTC
Különbözõ irányokból fújó szél 2 kt
Hőmérséklet -13°C
Páratartalom 56%
Légköri nyomás 1021 hPa
Látótávolság 10 km, vagy több

METAR: UIAA 230600Z VRB01MPS 9999 NSC M13/M20 Q1021 R29/810165 NOSIG RMK QFE707/0943

Idő: 15:31 (06:31 UTC)

Előrejelzés

A jelentés 1 órával és 31 perccel ezelõtt készült, 05:00 UTC
Az előrejelzés 23-én 06 óra UTC és 24-én 06 óra UTC között érvényes
Kelet-északkeleti szél 6 kt
Látótávolság 10 km, vagy több

TAF: UIAA 230500Z 2306/2406 06003MPS 9999 NSC

Meteorológiai megfigyelések és előrejelzések több, mint 4000 repülőtéren (METAR és TAF jelentéseket).

A térképen piros és sárga pontok jelzik az elérhető meteorológiai állomásokat.

Mozgassa az egeret a pont fölött, hogy megjelenjen az állomás neve.

Azután kattintson az időjárási megfigyelések és előrejelzések megtekintéséhez.

A térkép megváltoztatása: kattintson a fekete keresztel jelölt zöld gombra ráközelítéshez, a vonallal jelölt zöld gombra távolításhoz, vagy a zöld nyilakra a szomszédos térképek eléréséhez.


METAR-TAF: